sensor_id;sensor_type;location;lat;lon;timestamp;temperature;humidity
43949;DHT22;29429;51.074;13.764;2024-01-11T00:01:50;-7.10;99.90
43949;DHT22;29429;51.074;13.764;2024-01-11T00:04:17;-7.10;99.90
43949;DHT22;29429;51.074;13.764;2024-01-11T00:06:45;-7.10;99.90
43949;DHT22;29429;51.074;13.764;2024-01-11T00:09:12;-7.20;99.90
43949;DHT22;29429;51.074;13.764;2024-01-11T00:11:39;-7.20;99.90
43949;DHT22;29429;51.074;13.764;2024-01-11T00:14:06;-7.20;99.90
43949;DHT22;29429;51.074;13.764;2024-01-11T00:16:34;-7.20;99.90
43949;DHT22;29429;51.074;13.764;2024-01-11T00:19:01;-7.30;99.90
43949;DHT22;29429;51.074;13.764;2024-01-11T00:21:28;-7.30;99.90
43949;DHT22;29429;51.074;13.764;2024-01-11T00:23:55;-7.30;99.90
43949;DHT22;29429;51.074;13.764;2024-01-11T00:26:22;-7.30;99.90
43949;DHT22;29429;51.074;13.764;2024-01-11T00:28:49;-7.30;99.90
43949;DHT22;29429;51.074;13.764;2024-01-11T00:31:16;-7.40;99.90
43949;DHT22;29429;51.074;13.764;2024-01-11T00:33:43;-7.40;99.90
43949;DHT22;29429;51.074;13.764;2024-01-11T00:36:10;-7.40;99.90
43949;DHT22;29429;51.074;13.764;2024-01-11T00:38:37;-7.40;99.90
43949;DHT22;29429;51.074;13.764;2024-01-11T00:41:04;-7.40;99.90
43949;DHT22;29429;51.074;13.764;2024-01-11T00:43:31;-7.40;99.90
43949;DHT22;29429;51.074;13.764;2024-01-11T00:45:58;-7.40;99.90
43949;DHT22;29429;51.074;13.764;2024-01-11T00:48:25;-7.50;99.90
43949;DHT22;29429;51.074;13.764;2024-01-11T00:50:53;-7.50;99.90
43949;DHT22;29429;51.074;13.764;2024-01-11T00:53:20;-7.50;99.90
43949;DHT22;29429;51.074;13.764;2024-01-11T00:55:47;-7.50;99.90
43949;DHT22;29429;51.074;13.764;2024-01-11T00:58:14;-7.50;99.90
43949;DHT22;29429;51.074;13.764;2024-01-11T01:00:41;-7.50;99.90
43949;DHT22;29429;51.074;13.764;2024-01-11T01:03:08;-7.50;99.90
43949;DHT22;29429;51.074;13.764;2024-01-11T01:05:35;-7.50;99.90
43949;DHT22;29429;51.074;13.764;2024-01-11T01:08:02;-7.50;99.90
43949;DHT22;29429;51.074;13.764;2024-01-11T01:10:29;-7.50;99.90
43949;DHT22;29429;51.074;13.764;2024-01-11T01:12:56;-7.60;99.90
43949;DHT22;29429;51.074;13.764;2024-01-11T01:15:23;-7.50;99.90
43949;DHT22;29429;51.074;13.764;2024-01-11T01:17:50;-7.50;99.90
43949;DHT22;29429;51.074;13.764;2024-01-11T01:20:17;-7.60;99.90
43949;DHT22;29429;51.074;13.764;2024-01-11T01:22:44;-7.50;99.90
43949;DHT22;29429;51.074;13.764;2024-01-11T01:25:11;-7.50;99.90
43949;DHT22;29429;51.074;13.764;2024-01-11T01:27:38;-7.60;99.90
43949;DHT22;29429;51.074;13.764;2024-01-11T01:30:06;-7.60;99.90
43949;DHT22;29429;51.074;13.764;2024-01-11T01:32:33;-7.60;99.90
43949;DHT22;29429;51.074;13.764;2024-01-11T01:35:01;-7.60;99.90
43949;DHT22;29429;51.074;13.764;2024-01-11T01:37:28;-7.60;99.90
43949;DHT22;29429;51.074;13.764;2024-01-11T01:39:55;-7.70;99.90
43949;DHT22;29429;51.074;13.764;2024-01-11T01:42:22;-7.70;99.90
43949;DHT22;29429;51.074;13.764;2024-01-11T01:44:49;-7.70;99.90
43949;DHT22;29429;51.074;13.764;2024-01-11T01:47:17;-7.70;99.90
43949;DHT22;29429;51.074;13.764;2024-01-11T01:49:45;-7.70;99.90
43949;DHT22;29429;51.074;13.764;2024-01-11T01:52:16;-7.70;99.90
43949;DHT22;29429;51.074;13.764;2024-01-11T01:54:43;-7.70;99.90
43949;DHT22;29429;51.074;13.764;2024-01-11T01:57:11;-7.70;99.90
43949;DHT22;29429;51.074;13.764;2024-01-11T01:59:40;-7.70;99.90
43949;DHT22;29429;51.074;13.764;2024-01-11T02:02:09;-7.70;99.90
43949;DHT22;29429;51.074;13.764;2024-01-11T02:04:37;-7.80;99.90
43949;DHT22;29429;51.074;13.764;2024-01-11T02:07:05;-7.80;99.90
43949;DHT22;29429;51.074;13.764;2024-01-11T02:09:33;-7.80;99.90
43949;DHT22;29429;51.074;13.764;2024-01-11T02:12:00;-7.80;99.90
43949;DHT22;29429;51.074;13.764;2024-01-11T02:14:29;-7.80;99.90
43949;DHT22;29429;51.074;13.764;2024-01-11T02:16:56;-7.80;99.90
43949;DHT22;29429;51.074;13.764;2024-01-11T02:19:23;-7.80;99.90
43949;DHT22;29429;51.074;13.764;2024-01-11T02:21:53;-7.80;99.90
43949;DHT22;29429;51.074;13.764;2024-01-11T02:24:21;-7.80;99.90
43949;DHT22;29429;51.074;13.764;2024-01-11T02:27:02;-7.80;99.90
43949;DHT22;29429;51.074;13.764;2024-01-11T02:29:35;-7.80;99.90
43949;DHT22;29429;51.074;13.764;2024-01-11T02:32:03;-7.80;99.90
43949;DHT22;29429;51.074;13.764;2024-01-11T02:34:32;-7.80;99.90
43949;DHT22;29429;51.074;13.764;2024-01-11T02:37:00;-7.90;99.90
43949;DHT22;29429;51.074;13.764;2024-01-11T02:39:27;-7.90;99.90
43949;DHT22;29429;51.074;13.764;2024-01-11T02:41:56;-7.90;99.90
43949;DHT22;29429;51.074;13.764;2024-01-11T02:44:24;-7.90;99.90
43949;DHT22;29429;51.074;13.764;2024-01-11T02:46:52;-7.90;99.90
43949;DHT22;29429;51.074;13.764;2024-01-11T02:49:19;-7.90;99.90
43949;DHT22;29429;51.074;13.764;2024-01-11T02:51:46;-7.90;99.90
43949;DHT22;29429;51.074;13.764;2024-01-11T02:54:13;-8.00;99.90
43949;DHT22;29429;51.074;13.764;2024-01-11T02:56:40;-8.00;99.90
43949;DHT22;29429;51.074;13.764;2024-01-11T02:59:07;-8.00;99.90
43949;DHT22;29429;51.074;13.764;2024-01-11T03:01:34;-8.00;99.90
43949;DHT22;29429;51.074;13.764;2024-01-11T03:04:00;-8.00;99.90
43949;DHT22;29429;51.074;13.764;2024-01-11T03:06:28;-8.00;99.90
43949;DHT22;29429;51.074;13.764;2024-01-11T03:08:55;-8.00;99.90
43949;DHT22;29429;51.074;13.764;2024-01-11T03:11:22;-8.00;99.90
43949;DHT22;29429;51.074;13.764;2024-01-11T03:13:49;-8.10;99.90
43949;DHT22;29429;51.074;13.764;2024-01-11T03:16:16;-8.00;99.90
43949;DHT22;29429;51.074;13.764;2024-01-11T03:18:43;-8.10;99.90
43949;DHT22;29429;51.074;13.764;2024-01-11T03:21:10;-8.00;99.90
43949;DHT22;29429;51.074;13.764;2024-01-11T03:23:37;-8.00;99.90
43949;DHT22;29429;51.074;13.764;2024-01-11T03:26:05;-8.00;99.90
43949;DHT22;29429;51.074;13.764;2024-01-11T03:28:39;-8.00;99.90
43949;DHT22;29429;51.074;13.764;2024-01-11T03:31:06;-8.00;99.90
43949;DHT22;29429;51.074;13.764;2024-01-11T03:33:35;-8.00;99.90
43949;DHT22;29429;51.074;13.764;2024-01-11T03:36:10;-8.00;99.90
43949;DHT22;29429;51.074;13.764;2024-01-11T03:38:37;-8.00;99.90
43949;DHT22;29429;51.074;13.764;2024-01-11T03:41:09;-8.00;99.90
43949;DHT22;29429;51.074;13.764;2024-01-11T03:43:37;-8.10;99.90
43949;DHT22;29429;51.074;13.764;2024-01-11T03:46:04;-8.10;99.90
43949;DHT22;29429;51.074;13.764;2024-01-11T03:48:31;-8.10;99.90
43949;DHT22;29429;51.074;13.764;2024-01-11T03:50:58;-8.10;99.90
43949;DHT22;29429;51.074;13.764;2024-01-11T03:53:25;-8.00;99.90
43949;DHT22;29429;51.074;13.764;2024-01-11T03:55:52;-8.10;99.90
43949;DHT22;29429;51.074;13.764;2024-01-11T03:58:20;-7.90;99.90
43949;DHT22;29429;51.074;13.764;2024-01-11T04:00:47;-8.10;99.90
43949;DHT22;29429;51.074;13.764;2024-01-11T04:03:14;-8.10;99.90
43949;DHT22;29429;51.074;13.764;2024-01-11T04:05:41;-8.10;99.90
43949;DHT22;29429;51.074;13.764;2024-01-11T04:08:08;-8.10;99.90
43949;DHT22;29429;51.074;13.764;2024-01-11T04:10:35;-8.10;99.90
43949;DHT22;29429;51.074;13.764;2024-01-11T04:13:02;-8.10;99.90
43949;DHT22;29429;51.074;13.764;2024-01-11T04:15:29;-8.10;99.90
43949;DHT22;29429;51.074;13.764;2024-01-11T04:17:56;-8.10;99.90
43949;DHT22;29429;51.074;13.764;2024-01-11T04:20:23;-8.10;99.90
43949;DHT22;29429;51.074;13.764;2024-01-11T04:22:51;-8.00;99.90
43949;DHT22;29429;51.074;13.764;2024-01-11T04:25:18;-8.10;99.90
43949;DHT22;29429;51.074;13.764;2024-01-11T04:27:45;-8.10;99.90
43949;DHT22;29429;51.074;13.764;2024-01-11T04:30:12;-8.10;99.90
43949;DHT22;29429;51.074;13.764;2024-01-11T04:32:39;-7.90;99.90
43949;DHT22;29429;51.074;13.764;2024-01-11T04:35:07;-8.10;99.90
43949;DHT22;29429;51.074;13.764;2024-01-11T04:37:35;-8.10;99.90
43949;DHT22;29429;51.074;13.764;2024-01-11T04:40:02;-8.10;99.90
43949;DHT22;29429;51.074;13.764;2024-01-11T04:42:30;-8.10;99.90
43949;DHT22;29429;51.074;13.764;2024-01-11T04:44:57;-8.10;99.90
43949;DHT22;29429;51.074;13.764;2024-01-11T04:47:24;-8.10;99.90
43949;DHT22;29429;51.074;13.764;2024-01-11T04:49:51;-8.10;99.90
43949;DHT22;29429;51.074;13.764;2024-01-11T04:52:18;-8.10;99.90
43949;DHT22;29429;51.074;13.764;2024-01-11T04:54:45;-8.10;99.90
43949;DHT22;29429;51.074;13.764;2024-01-11T04:57:12;-8.00;99.90
43949;DHT22;29429;51.074;13.764;2024-01-11T04:59:39;-8.00;99.90
43949;DHT22;29429;51.074;13.764;2024-01-11T05:02:06;-8.00;99.90
43949;DHT22;29429;51.074;13.764;2024-01-11T05:04:33;-8.00;99.90
43949;DHT22;29429;51.074;13.764;2024-01-11T05:07:00;-8.00;99.90
43949;DHT22;29429;51.074;13.764;2024-01-11T05:09:27;-8.00;99.90
43949;DHT22;29429;51.074;13.764;2024-01-11T05:11:54;-7.90;99.90
43949;DHT22;29429;51.074;13.764;2024-01-11T05:14:21;-7.90;99.90
43949;DHT22;29429;51.074;13.764;2024-01-11T05:16:48;-7.90;99.90
43949;DHT22;29429;51.074;13.764;2024-01-11T05:19:15;-7.90;99.90
43949;DHT22;29429;51.074;13.764;2024-01-11T05:21:42;-7.90;99.90
43949;DHT22;29429;51.074;13.764;2024-01-11T05:24:09;-7.90;99.90
43949;DHT22;29429;51.074;13.764;2024-01-11T05:26:38;-7.90;99.90
43949;DHT22;29429;51.074;13.764;2024-01-11T05:29:05;-7.90;99.90
43949;DHT22;29429;51.074;13.764;2024-01-11T05:31:32;-7.90;99.90
43949;DHT22;29429;51.074;13.764;2024-01-11T05:33:59;-7.90;99.90
43949;DHT22;29429;51.074;13.764;2024-01-11T05:36:26;-8.00;99.90
43949;DHT22;29429;51.074;13.764;2024-01-11T05:38:53;-7.90;99.90
43949;DHT22;29429;51.074;13.764;2024-01-11T05:41:20;-7.90;99.90
43949;DHT22;29429;51.074;13.764;2024-01-11T05:43:47;-7.90;99.90
43949;DHT22;29429;51.074;13.764;2024-01-11T05:46:14;-8.30;99.90
43949;DHT22;29429;51.074;13.764;2024-01-11T05:48:42;-8.00;99.90
43949;DHT22;29429;51.074;13.764;2024-01-11T05:51:09;-8.00;99.90
43949;DHT22;29429;51.074;13.764;2024-01-11T05:53:36;-8.00;99.90
43949;DHT22;29429;51.074;13.764;2024-01-11T05:56:08;-8.00;99.90
43949;DHT22;29429;51.074;13.764;2024-01-11T05:58:36;-8.00;99.90
43949;DHT22;29429;51.074;13.764;2024-01-11T06:01:04;-8.00;99.90
43949;DHT22;29429;51.074;13.764;2024-01-11T06:03:31;-8.10;99.90
43949;DHT22;29429;51.074;13.764;2024-01-11T06:06:01;-8.10;99.90
43949;DHT22;29429;51.074;13.764;2024-01-11T06:08:29;-8.10;99.90
43949;DHT22;29429;51.074;13.764;2024-01-11T06:10:58;-8.10;99.90
43949;DHT22;29429;51.074;13.764;2024-01-11T06:13:25;-8.00;99.90
43949;DHT22;29429;51.074;13.764;2024-01-11T06:15:52;-8.00;99.90
43949;DHT22;29429;51.074;13.764;2024-01-11T06:18:19;-8.00;99.90
43949;DHT22;29429;51.074;13.764;2024-01-11T06:20:47;-8.10;99.90
43949;DHT22;29429;51.074;13.764;2024-01-11T06:23:14;-8.10;99.90
43949;DHT22;29429;51.074;13.764;2024-01-11T06:25:41;-8.10;99.90
43949;DHT22;29429;51.074;13.764;2024-01-11T06:28:09;-8.10;99.90
43949;DHT22;29429;51.074;13.764;2024-01-11T06:30:36;-8.10;99.90
43949;DHT22;29429;51.074;13.764;2024-01-11T06:33:04;-8.10;99.90
43949;DHT22;29429;51.074;13.764;2024-01-11T06:35:31;-8.00;99.90
43949;DHT22;29429;51.074;13.764;2024-01-11T06:37:58;-8.00;99.90
43949;DHT22;29429;51.074;13.764;2024-01-11T06:40:25;-8.00;99.90
43949;DHT22;29429;51.074;13.764;2024-01-11T06:42:52;-8.00;99.90
43949;DHT22;29429;51.074;13.764;2024-01-11T06:45:19;-8.00;99.90
43949;DHT22;29429;51.074;13.764;2024-01-11T06:47:46;-7.90;99.90
43949;DHT22;29429;51.074;13.764;2024-01-11T06:50:15;-7.90;99.90
43949;DHT22;29429;51.074;13.764;2024-01-11T06:52:43;-7.90;99.90
43949;DHT22;29429;51.074;13.764;2024-01-11T06:55:10;-7.90;99.90
43949;DHT22;29429;51.074;13.764;2024-01-11T06:57:37;-7.80;99.90
43949;DHT22;29429;51.074;13.764;2024-01-11T07:00:05;-7.80;99.90
43949;DHT22;29429;51.074;13.764;2024-01-11T07:02:34;-7.80;99.90
43949;DHT22;29429;51.074;13.764;2024-01-11T07:05:02;-7.80;99.90
43949;DHT22;29429;51.074;13.764;2024-01-11T07:07:29;-7.70;99.90
43949;DHT22;29429;51.074;13.764;2024-01-11T07:09:56;-7.70;99.90
43949;DHT22;29429;51.074;13.764;2024-01-11T07:12:27;-7.70;99.90
43949;DHT22;29429;51.074;13.764;2024-01-11T07:15:05;-7.60;99.90
43949;DHT22;29429;51.074;13.764;2024-01-11T07:17:35;-7.60;99.90
43949;DHT22;29429;51.074;13.764;2024-01-11T07:20:12;-7.60;99.90
43949;DHT22;29429;51.074;13.764;2024-01-11T07:22:46;-7.50;99.90
43949;DHT22;29429;51.074;13.764;2024-01-11T07:25:13;-7.50;99.90
43949;DHT22;29429;51.074;13.764;2024-01-11T07:27:40;-7.40;99.90
43949;DHT22;29429;51.074;13.764;2024-01-11T07:30:10;-7.40;99.90
43949;DHT22;29429;51.074;13.764;2024-01-11T07:32:37;-7.30;99.90
43949;DHT22;29429;51.074;13.764;2024-01-11T07:35:05;-7.30;99.90
43949;DHT22;29429;51.074;13.764;2024-01-11T07:37:40;-7.20;99.90
43949;DHT22;29429;51.074;13.764;2024-01-11T07:40:07;-7.10;99.90
43949;DHT22;29429;51.074;13.764;2024-01-11T07:42:38;-7.00;99.90
43949;DHT22;29429;51.074;13.764;2024-01-11T07:45:08;-7.00;99.90
43949;DHT22;29429;51.074;13.764;2024-01-11T07:47:37;-6.90;99.90
43949;DHT22;29429;51.074;13.764;2024-01-11T07:50:05;-6.90;99.90
43949;DHT22;29429;51.074;13.764;2024-01-11T07:52:33;-6.80;99.90
43949;DHT22;29429;51.074;13.764;2024-01-11T07:55:00;-6.70;99.90
43949;DHT22;29429;51.074;13.764;2024-01-11T07:57:36;-6.70;99.90
43949;DHT22;29429;51.074;13.764;2024-01-11T08:00:05;-6.70;99.90
43949;DHT22;29429;51.074;13.764;2024-01-11T08:02:41;-6.60;99.90
43949;DHT22;29429;51.074;13.764;2024-01-11T08:05:08;-6.60;99.90
43949;DHT22;29429;51.074;13.764;2024-01-11T08:07:35;-6.50;99.90
43949;DHT22;29429;51.074;13.764;2024-01-11T08:10:03;-6.50;99.90
43949;DHT22;29429;51.074;13.764;2024-01-11T08:12:31;-6.40;99.90
43949;DHT22;29429;51.074;13.764;2024-01-11T08:14:58;-6.40;99.90
43949;DHT22;29429;51.074;13.764;2024-01-11T08:17:26;-6.30;99.90
43949;DHT22;29429;51.074;13.764;2024-01-11T08:19:53;-6.20;99.90
43949;DHT22;29429;51.074;13.764;2024-01-11T08:22:22;-6.10;99.90
43949;DHT22;29429;51.074;13.764;2024-01-11T08:24:54;-6.00;99.90
43949;DHT22;29429;51.074;13.764;2024-01-11T08:27:26;-5.90;99.90
43949;DHT22;29429;51.074;13.764;2024-01-11T08:29:53;-5.80;99.90
43949;DHT22;29429;51.074;13.764;2024-01-11T08:32:20;-5.60;99.90
43949;DHT22;29429;51.074;13.764;2024-01-11T08:34:57;-5.50;99.90
43949;DHT22;29429;51.074;13.764;2024-01-11T08:37:25;-5.40;99.90
43949;DHT22;29429;51.074;13.764;2024-01-11T08:39:52;-5.30;99.90
43949;DHT22;29429;51.074;13.764;2024-01-11T08:42:19;-5.20;99.90
43949;DHT22;29429;51.074;13.764;2024-01-11T08:44:46;-5.10;99.90
43949;DHT22;29429;51.074;13.764;2024-01-11T08:47:14;-5.00;99.90
43949;DHT22;29429;51.074;13.764;2024-01-11T08:49:42;-4.90;99.90
43949;DHT22;29429;51.074;13.764;2024-01-11T08:52:09;-4.70;99.90
43949;DHT22;29429;51.074;13.764;2024-01-11T08:54:37;-4.50;99.90
43949;DHT22;29429;51.074;13.764;2024-01-11T08:57:04;-4.30;99.90
43949;DHT22;29429;51.074;13.764;2024-01-11T08:59:31;-4.20;99.90
43949;DHT22;29429;51.074;13.764;2024-01-11T09:01:59;-4.20;99.90
43949;DHT22;29429;51.074;13.764;2024-01-11T09:04:41;-4.20;99.90
43949;DHT22;29429;51.074;13.764;2024-01-11T09:07:08;-4.30;99.90
43949;DHT22;29429;51.074;13.764;2024-01-11T09:09:35;-4.30;99.90
43949;DHT22;29429;51.074;13.764;2024-01-11T09:12:16;-4.40;99.90
43949;DHT22;29429;51.074;13.764;2024-01-11T09:14:43;-4.40;99.90
43949;DHT22;29429;51.074;13.764;2024-01-11T09:17:10;-4.40;99.90
43949;DHT22;29429;51.074;13.764;2024-01-11T09:19:41;-4.40;99.90
43949;DHT22;29429;51.074;13.764;2024-01-11T09:22:08;-4.30;99.90
43949;DHT22;29429;51.074;13.764;2024-01-11T09:24:37;-4.20;99.90
43949;DHT22;29429;51.074;13.764;2024-01-11T09:27:06;-4.10;99.90
43949;DHT22;29429;51.074;13.764;2024-01-11T09:29:33;-4.00;99.90
43949;DHT22;29429;51.074;13.764;2024-01-11T09:32:00;-4.00;99.90
43949;DHT22;29429;51.074;13.764;2024-01-11T09:34:27;-3.90;99.90
43949;DHT22;29429;51.074;13.764;2024-01-11T09:36:55;-3.80;99.90
43949;DHT22;29429;51.074;13.764;2024-01-11T09:39:25;-3.60;99.90
43949;DHT22;29429;51.074;13.764;2024-01-11T09:42:00;-3.40;99.90
43949;DHT22;29429;51.074;13.764;2024-01-11T09:44:33;-3.20;99.90
43949;DHT22;29429;51.074;13.764;2024-01-11T09:47:01;-3.00;99.90
43949;DHT22;29429;51.074;13.764;2024-01-11T09:49:30;-2.90;99.90
43949;DHT22;29429;51.074;13.764;2024-01-11T09:52:00;-2.90;99.90
43949;DHT22;29429;51.074;13.764;2024-01-11T09:54:28;-2.70;99.90
43949;DHT22;29429;51.074;13.764;2024-01-11T09:56:59;-2.50;99.90
43949;DHT22;29429;51.074;13.764;2024-01-11T09:59:28;-2.40;99.90
43949;DHT22;29429;51.074;13.764;2024-01-11T10:01:55;-2.30;99.90
43949;DHT22;29429;51.074;13.764;2024-01-11T10:04:22;-2.20;99.90
43949;DHT22;29429;51.074;13.764;2024-01-11T10:06:50;-2.10;99.90
43949;DHT22;29429;51.074;13.764;2024-01-11T10:09:19;-2.00;99.90
43949;DHT22;29429;51.074;13.764;2024-01-11T10:11:46;-2.00;99.90
43949;DHT22;29429;51.074;13.764;2024-01-11T10:14:14;-1.90;99.90
43949;DHT22;29429;51.074;13.764;2024-01-11T10:16:42;-2.10;99.90
43949;DHT22;29429;51.074;13.764;2024-01-11T10:19:10;-2.20;99.90
43949;DHT22;29429;51.074;13.764;2024-01-11T10:21:40;-2.20;99.90
43949;DHT22;29429;51.074;13.764;2024-01-11T10:24:07;-2.30;99.90
43949;DHT22;29429;51.074;13.764;2024-01-11T10:26:35;-2.50;99.90
43949;DHT22;29429;51.074;13.764;2024-01-11T10:29:02;-2.50;99.90
43949;DHT22;29429;51.074;13.764;2024-01-11T10:31:32;-2.60;99.90
43949;DHT22;29429;51.074;13.764;2024-01-11T10:34:01;-2.70;99.90
43949;DHT22;29429;51.074;13.764;2024-01-11T10:36:31;-2.70;99.90
43949;DHT22;29429;51.074;13.764;2024-01-11T10:39:02;-2.60;99.90
43949;DHT22;29429;51.074;13.764;2024-01-11T10:41:39;-2.70;99.90
43949;DHT22;29429;51.074;13.764;2024-01-11T10:44:18;-2.60;99.90
43949;DHT22;29429;51.074;13.764;2024-01-11T10:46:50;-2.60;99.90
43949;DHT22;29429;51.074;13.764;2024-01-11T10:49:19;-2.50;99.90
43949;DHT22;29429;51.074;13.764;2024-01-11T10:51:59;-2.40;99.90
43949;DHT22;29429;51.074;13.764;2024-01-11T10:54:28;-2.30;99.90
43949;DHT22;29429;51.074;13.764;2024-01-11T10:56:58;-2.20;99.90
43949;DHT22;29429;51.074;13.764;2024-01-11T10:59:27;-2.20;99.90
43949;DHT22;29429;51.074;13.764;2024-01-11T11:02:04;-2.10;99.90
43949;DHT22;29429;51.074;13.764;2024-01-11T11:04:40;-2.10;99.90
43949;DHT22;29429;51.074;13.764;2024-01-11T11:07:09;-2.10;99.90
43949;DHT22;29429;51.074;13.764;2024-01-11T11:09:38;-2.10;99.90
43949;DHT22;29429;51.074;13.764;2024-01-11T11:12:11;-2.10;99.90
43949;DHT22;29429;51.074;13.764;2024-01-11T11:14:38;-2.10;99.90
43949;DHT22;29429;51.074;13.764;2024-01-11T11:17:05;-2.00;99.90
43949;DHT22;29429;51.074;13.764;2024-01-11T11:19:32;-2.00;99.90
43949;DHT22;29429;51.074;13.764;2024-01-11T11:22:03;-1.90;99.90
43949;DHT22;29429;51.074;13.764;2024-01-11T11:24:34;-1.90;99.90
43949;DHT22;29429;51.074;13.764;2024-01-11T11:30:09;-1.60;99.90
43949;DHT22;29429;51.074;13.764;2024-01-11T11:32:37;-1.50;99.90
43949;DHT22;29429;51.074;13.764;2024-01-11T11:35:05;-1.30;99.90
43949;DHT22;29429;51.074;13.764;2024-01-11T11:37:36;-1.20;99.90
43949;DHT22;29429;51.074;13.764;2024-01-11T11:40:10;-1.00;99.90
43949;DHT22;29429;51.074;13.764;2024-01-11T11:42:37;-0.90;99.90
43949;DHT22;29429;51.074;13.764;2024-01-11T11:45:09;-0.80;99.90
43949;DHT22;29429;51.074;13.764;2024-01-11T11:47:38;-0.70;99.90
43949;DHT22;29429;51.074;13.764;2024-01-11T11:50:11;-0.60;99.90
43949;DHT22;29429;51.074;13.764;2024-01-11T11:52:39;-0.40;99.90
43949;DHT22;29429;51.074;13.764;2024-01-11T11:55:09;-0.40;99.90
43949;DHT22;29429;51.074;13.764;2024-01-11T11:57:36;-0.30;99.90
43949;DHT22;29429;51.074;13.764;2024-01-11T12:00:04;-0.30;99.90
43949;DHT22;29429;51.074;13.764;2024-01-11T12:02:39;-0.30;99.90
43949;DHT22;29429;51.074;13.764;2024-01-11T12:05:06;-0.30;99.90
43949;DHT22;29429;51.074;13.764;2024-01-11T12:07:34;-0.30;99.90
43949;DHT22;29429;51.074;13.764;2024-01-11T12:10:02;-0.30;99.90
43949;DHT22;29429;51.074;13.764;2024-01-11T12:12:30;-0.30;99.90
43949;DHT22;29429;51.074;13.764;2024-01-11T12:14:58;-0.40;99.90
43949;DHT22;29429;51.074;13.764;2024-01-11T12:17:26;-0.40;99.90
43949;DHT22;29429;51.074;13.764;2024-01-11T12:19:54;-0.30;99.90
43949;DHT22;29429;51.074;13.764;2024-01-11T12:22:24;-0.30;99.90
43949;DHT22;29429;51.074;13.764;2024-01-11T12:24:51;-0.30;99.90
43949;DHT22;29429;51.074;13.764;2024-01-11T12:27:19;-0.20;99.90
43949;DHT22;29429;51.074;13.764;2024-01-11T12:29:47;-0.20;99.90
43949;DHT22;29429;51.074;13.764;2024-01-11T12:32:24;-0.10;99.90
43949;DHT22;29429;51.074;13.764;2024-01-11T12:34:52;-0.10;99.90
43949;DHT22;29429;51.074;13.764;2024-01-11T12:37:21;0.00;99.90
43949;DHT22;29429;51.074;13.764;2024-01-11T12:39:48;0.00;99.90
43949;DHT22;29429;51.074;13.764;2024-01-11T12:42:16;0.00;99.90
43949;DHT22;29429;51.074;13.764;2024-01-11T12:44:44;0.10;99.90
43949;DHT22;29429;51.074;13.764;2024-01-11T12:47:13;0.00;99.90
43949;DHT22;29429;51.074;13.764;2024-01-11T12:49:43;0.00;99.90
43949;DHT22;29429;51.074;13.764;2024-01-11T12:52:16;-0.10;99.90
43949;DHT22;29429;51.074;13.764;2024-01-11T12:54:46;-0.10;99.90
43949;DHT22;29429;51.074;13.764;2024-01-11T12:57:20;-0.20;99.90
43949;DHT22;29429;51.074;13.764;2024-01-11T12:59:48;-0.20;99.90
43949;DHT22;29429;51.074;13.764;2024-01-11T13:02:16;-0.20;99.90
43949;DHT22;29429;51.074;13.764;2024-01-11T13:04:46;-0.20;99.90
43949;DHT22;29429;51.074;13.764;2024-01-11T13:07:13;-0.20;99.90
43949;DHT22;29429;51.074;13.764;2024-01-11T13:09:42;-0.20;99.90
43949;DHT22;29429;51.074;13.764;2024-01-11T13:12:10;-0.30;99.90
43949;DHT22;29429;51.074;13.764;2024-01-11T13:14:38;-0.30;99.90
43949;DHT22;29429;51.074;13.764;2024-01-11T13:17:07;-0.40;99.90
43949;DHT22;29429;51.074;13.764;2024-01-11T13:19:34;-0.40;99.90
43949;DHT22;29429;51.074;13.764;2024-01-11T13:22:02;-0.50;99.90
43949;DHT22;29429;51.074;13.764;2024-01-11T13:24:29;-0.50;99.90
43949;DHT22;29429;51.074;13.764;2024-01-11T13:26:57;-0.40;99.90
43949;DHT22;29429;51.074;13.764;2024-01-11T13:29:24;-0.30;99.90
43949;DHT22;29429;51.074;13.764;2024-01-11T13:31:52;-0.30;99.90
43949;DHT22;29429;51.074;13.764;2024-01-11T13:34:19;-0.20;99.90
43949;DHT22;29429;51.074;13.764;2024-01-11T13:36:47;-0.20;99.90
43949;DHT22;29429;51.074;13.764;2024-01-11T13:39:14;-0.30;99.90
43949;DHT22;29429;51.074;13.764;2024-01-11T13:41:44;-0.40;99.90
43949;DHT22;29429;51.074;13.764;2024-01-11T13:44:11;-0.40;99.90
43949;DHT22;29429;51.074;13.764;2024-01-11T13:46:38;-0.50;99.90
43949;DHT22;29429;51.074;13.764;2024-01-11T13:49:05;-0.50;99.90
43949;DHT22;29429;51.074;13.764;2024-01-11T13:51:33;-0.50;99.90
43949;DHT22;29429;51.074;13.764;2024-01-11T13:54:12;-0.50;99.90
43949;DHT22;29429;51.074;13.764;2024-01-11T13:56:39;-0.60;99.90
43949;DHT22;29429;51.074;13.764;2024-01-11T13:59:06;-0.60;99.90
43949;DHT22;29429;51.074;13.764;2024-01-11T14:01:33;-0.60;99.90
43949;DHT22;29429;51.074;13.764;2024-01-11T14:04:01;-0.60;99.90
43949;DHT22;29429;51.074;13.764;2024-01-11T14:06:27;-0.70;99.90
43949;DHT22;29429;51.074;13.764;2024-01-11T14:08:54;-0.70;99.90
43949;DHT22;29429;51.074;13.764;2024-01-11T14:11:22;-0.70;99.90
43949;DHT22;29429;51.074;13.764;2024-01-11T14:13:49;-0.70;99.90
43949;DHT22;29429;51.074;13.764;2024-01-11T14:16:16;-0.70;99.90
43949;DHT22;29429;51.074;13.764;2024-01-11T14:18:45;-0.70;99.90
43949;DHT22;29429;51.074;13.764;2024-01-11T14:21:12;-0.70;99.90
43949;DHT22;29429;51.074;13.764;2024-01-11T14:23:39;-0.70;99.90
43949;DHT22;29429;51.074;13.764;2024-01-11T14:26:06;-0.80;99.90
43949;DHT22;29429;51.074;13.764;2024-01-11T14:28:33;-0.80;99.90
43949;DHT22;29429;51.074;13.764;2024-01-11T14:31:02;-0.80;99.90
43949;DHT22;29429;51.074;13.764;2024-01-11T14:33:30;-0.80;99.90
43949;DHT22;29429;51.074;13.764;2024-01-11T14:35:58;-0.90;99.90
43949;DHT22;29429;51.074;13.764;2024-01-11T14:38:25;-0.90;99.90
43949;DHT22;29429;51.074;13.764;2024-01-11T14:40:52;-0.90;99.90
43949;DHT22;29429;51.074;13.764;2024-01-11T14:43:19;-1.00;99.90
43949;DHT22;29429;51.074;13.764;2024-01-11T14:45:48;-1.00;99.90
43949;DHT22;29429;51.074;13.764;2024-01-11T14:48:17;-1.00;99.90
43949;DHT22;29429;51.074;13.764;2024-01-11T14:50:44;-1.00;99.90
43949;DHT22;29429;51.074;13.764;2024-01-11T14:53:11;-1.10;99.90
43949;DHT22;29429;51.074;13.764;2024-01-11T14:55:39;-1.10;99.90
43949;DHT22;29429;51.074;13.764;2024-01-11T14:58:06;-1.00;99.90
43949;DHT22;29429;51.074;13.764;2024-01-11T15:00:33;-1.00;99.90
43949;DHT22;29429;51.074;13.764;2024-01-11T15:03:00;-1.00;99.90
43949;DHT22;29429;51.074;13.764;2024-01-11T15:05:27;-1.10;99.90
43949;DHT22;29429;51.074;13.764;2024-01-11T15:07:54;-1.10;99.90
43949;DHT22;29429;51.074;13.764;2024-01-11T15:10:22;-1.10;99.90
43949;DHT22;29429;51.074;13.764;2024-01-11T15:12:49;-1.20;99.90
43949;DHT22;29429;51.074;13.764;2024-01-11T15:15:15;-1.20;99.90
43949;DHT22;29429;51.074;13.764;2024-01-11T15:17:42;-1.30;99.90
43949;DHT22;29429;51.074;13.764;2024-01-11T15:20:10;-1.30;99.90
43949;DHT22;29429;51.074;13.764;2024-01-11T15:22:37;-1.40;99.90
43949;DHT22;29429;51.074;13.764;2024-01-11T15:25:04;-1.40;99.90
43949;DHT22;29429;51.074;13.764;2024-01-11T15:27:32;-1.50;99.90